Dover Air Force Base
KDOV : now visible

Airfield :











YOU CAN JOIN US ON...

 
LOGIN :

Register | Disclaimer

   EN    FR    IT 

 









Legend :    VFR   Marginal VFR   IFR   Intensive IFR   Very Intensive IFR
Visi :
Ceiling :
>= 8 km
>= 3000ft
5 to 8 km
1000 to 3000 ft
1500m to 5 km
500 to 1000 ft
800 to 1500m
200 to 500 ft
< 800m
< 200 ft
Symbols :   Thunderstorms  Fog  Heavy snow  Heavy precipitations  Wind > 20 kt






- Airport Elevation : 24 ft


KDOV - Dover Air Force Base

CURRENT METAR :
  • 031356Z AUTO 29004KT 4SM HZ CLR 28/20 A3005 RMK AO2 SLP179 T02750195 $

EXPIRED METARs :
  • 031256Z AUTO 25006KT 9SM CLR 27/21 A3005 RMK AO2 SLP179 T02670214 $

TAF COR TAF KDOV
Valid from the 03 at 08:00 until the 04 at 14:00 UTC


031034Z 0308/0414 27006KT 9999 SCT050 BKN080 QNH3000INS
TEMPO 0319/0320 17010G15KT VCTS BKN050CB
BECMG 0319/0320 17010G15KT 8000 -TSRA BKN040CB OVC090 QNH3003INS
BECMG 0322/0323 19010G20KT 8000 -TSRA BKN040CB OVC090 QNH3002INS
BECMG 0405/0406 19012KT 9999 -RA VCTS BKN040CB OVC090 QNH2999INS
BECMG 0413/0414 15030G40KT 3200 +RA VCTS BKN010CB OVC030 QNH2994INS TX32/0320Z TN24/0310Z
KZDC FIR / North America



MET'MAP, your aeronautical weather chart ! - Copyright ORBIFLY December 2007 - Disclaimer

ORBIFLY MET'MAP TEAM :

Programming & Development : Alexandra Zaïnal
Concept & original design : Baudouin d'Aumeries
Assistance for programming : Marc-Olivier Méhu
Technical & hardware support : Manuel Goepfert

Contact : metmap@orbifly.com




SOURCES & CREDITS :

   NOAA       Earth
Advisory